Hauptseite
METAR-TAF:

METAR-TAF

Flughäfen :

Karachi/Jinnah International Airport

Karatschi, Pakistan

Breite: 24-54N, Länge: 067-08E, Höhe: 21 m

Beobachtung

Neuester Wetterbericht von vor 27 Minuten, um 14:30 UTC
Windstille
Temperatur 20°C
Luftfeuchtigkeit 35%
Luftdruck 1018 hPa
Sichtweite: 7000 m

METAR: OPKC 241430Z 00000KT 7000 NSC 20/04 Q1018 NOSIG

Zeit: 19:57 (14:57 UTC)

Prognose

Neuester Wetterbericht von vor 4 Stunden und 57 Minuten, um 10:00 UTC
Gültige Prognose vom 24 um 12 UTC bis 25 um 18 UTC
Wind 10 kt aus Ost/Nordost, Böen bis zu 20 kt
Sichtweite: 6000 m
Ab 24 um 1700 UTC
Wind 10 kt aus Nordost
Sichtweite: 6000 m
Ab 24 um 1700 UTC
Wind 10 kt aus Nordost
Sichtweite: 6000 m
Zeitweise
vom 25 um 00 UTC bis 25 um 04 UTC
Wind 10 kt aus Nord/Nordost
Sichtweite: 3000 m
Rauch

TAF: OPKC 241000Z 2412/2518 06010G20KT 6000 NSC FM241700 04010KT 6000 NSC FM241700 04010KT 6000 NSC TEMPO 2500/2504 03010KT 3000 FU NSC

Wetterbeobachtungen und Prognosen von mehr als 4000 Flughäfen (METAR und TAF Bericht).

Die verfügbaren Stationen werden durch gelbe und rote Markierungen auf der Karte dargestellt.

Führen Sie die Maus auf sie, um den Namen der Station zu sehen.

Darauf klicken, um die Beobachtung von Wetterbeobachtungen und Prognosen zu sehen.

Um die Karte zu ändern : klicken Sie auf den grünen Tasten mit einem schwarzen Kreuz Zum Vergrößern, auf den grünen Button mit einem Gedankenstrich zu verkleinern, oder auf die grünen Pfeile für benachbarte Karten.


METAR-TAF: